Time;durP1;ratioP1;P1;durP2;ratioP2;P2;SDS_P1;SDS_P2;PMS_P1;PMS_P2;Temp;Humidity;BMP_temperature;BMP_pressure;BME280_temperature;BME280_humidity;BME280_pressure;Samples;Min_cycle;Max_cycle;Signal;HPM_P1;HPM_P2
2022/01/18 00:00:04;;;;;;;25.27;4.25;;;4.50;92.60;;;;;;5048424;28;20041;-86
2022/01/18 00:02:30;;;;;;;19.38;4.13;;;4.60;92.40;;;;;;5048701;28;20407;-86
2022/01/18 00:04:55;;;;;;;17.48;3.67;;;4.60;92.30;;;;;;5043364;28;20429;-86
2022/01/18 00:07:21;;;;;;;22.33;2.70;;;4.70;92.10;;;;;;5041317;28;20033;-86
2022/01/18 00:09:48;;;;;;;19.67;2.75;;;4.70;92.20;;;;;;5033406;28;20028;-86
2022/01/18 00:12:32;;;;;;;17.33;3.60;;;4.80;92.10;;;;;;5043768;28;20438;-86
2022/01/18 00:15:29;;;;;;;22.23;3.20;;;4.80;92.00;;;;;;5031292;28;20071;-85
2022/01/18 00:20:51;;;;;;;23.10;2.80;;;5.00;91.80;;;;;;5051178;28;20458;-85
2022/01/18 00:23:18;;;;;;;21.85;3.15;;;5.00;91.50;;;;;;5047441;28;20032;-85
2022/01/18 00:25:48;;;;;;;18.65;2.25;;;5.10;91.30;;;;;;5036089;28;20112;-85
2022/01/18 00:28:14;;;;;;;17.42;2.85;;;5.10;91.30;;;;;;5058972;28;20053;-85
2022/01/18 00:33:37;;;;;;;9.93;2.28;;;5.10;91.10;;;;;;5038914;28;20121;-85
2022/01/18 00:36:06;;;;;;;16.80;2.05;;;5.10;90.70;;;;;;5047333;28;20032;-86
2022/01/18 00:38:52;;;;;;;15.23;1.88;;;5.10;90.20;;;;;;5046548;28;20036;-86
2022/01/18 00:41:20;;;;;;;11.23;1.98;;;5.20;89.40;;;;;;5043322;28;20120;-86
2022/01/18 00:43:46;;;;;;;9.45;1.92;;;5.20;89.20;;;;;;5031523;28;20025;-85
2022/01/18 00:46:13;;;;;;;7.90;1.83;;;5.20;89.30;;;;;;5034991;28;20032;-86
2022/01/18 00:48:45;;;;;;;12.57;1.60;;;5.20;89.40;;;;;;5050736;28;20108;-86
2022/01/18 00:51:13;;;;;;;9.75;1.88;;;5.20;89.50;;;;;;5050308;28;20056;-85
2022/01/18 00:53:45;;;;;;;12.07;1.92;;;5.20;89.70;;;;;;5035328;28;20026;-86
2022/01/18 00:58:38;;;;;;;10.57;1.80;;;5.20;89.40;;;;;;5037077;28;20024;-86
2022/01/18 01:01:04;;;;;;;7.88;1.50;;;5.20;89.10;;;;;;5038205;28;20025;-86
2022/01/18 01:03:30;;;;;;;10.52;1.83;;;5.30;89.20;;;;;;5040640;28;20087;-86
2022/01/18 01:05:55;;;;;;;9.07;1.67;;;5.30;89.20;;;;;;5044334;28;20040;-86
2022/01/18 01:08:21;;;;;;;8.07;1.45;;;5.30;89.00;;;;;;5047813;28;20029;-86
2022/01/18 01:10:47;;;;;;;8.10;1.35;;;5.30;89.30;;;;;;5037391;28;20029;-86
2022/01/18 01:13:14;;;;;;;11.43;1.50;;;5.30;89.40;;;;;;5045942;28;20021;-86
2022/01/18 01:35:08;;;;;;;8.43;1.15;;;5.30;90.10;;;;;;5035778;28;20121;-86
2022/01/18 01:45:34;;;;;;;6.25;1.20;;;5.20;91.40;;;;;;5045202;28;20111;-86
2022/01/18 01:48:01;;;;;;;8.90;1.30;;;5.10;91.70;;;;;;5036458;28;20119;-86
2022/01/18 01:50:40;;;;;;;10.82;1.65;;;5.10;91.60;;;;;;5050515;28;20045;-86
2022/01/18 01:53:05;;;;;;;7.00;1.52;;;5.10;91.80;;;;;;5030277;28;20074;-86
2022/01/18 01:55:31;;;;;;;10.45;1.58;;;5.10;91.80;;;;;;5034418;28;20501;-86
2022/01/18 01:57:56;;;;;;;9.75;1.48;;;5.10;92.00;;;;;;5035790;28;20017;-86
2022/01/18 02:00:23;;;;;;;7.45;0.93;;;5.00;92.40;;;;;;5042193;28;20033;-86
2022/01/18 02:02:49;;;;;;;12.20;1.35;;;5.00;92.70;;;;;;5041822;28;20036;-86
2022/01/18 02:05:15;;;;;;;6.90;1.33;;;5.00;93.10;;;;;;5034843;28;20534;-86
2022/01/18 02:07:40;;;;;;;9.05;1.85;;;5.00;93.20;;;;;;5039130;28;20081;-85
2022/01/18 02:10:07;;;;;;;7.40;1.08;;;5.00;93.60;;;;;;5040171;28;20120;-86
2022/01/18 02:12:34;;;;;;;9.07;1.25;;;5.00;93.70;;;;;;5045170;28;20048;-86
2022/01/18 02:15:09;;;;;;;11.50;1.52;;;5.00;94.00;;;;;;5033255;28;20026;-86
2022/01/18 02:23:17;;;;;;;8.30;1.13;;;4.90;94.30;;;;;;5038314;28;20560;-86
2022/01/18 02:25:42;;;;;;;9.77;1.17;;;4.90;94.50;;;;;;5039412;28;20040;-86
2022/01/18 02:28:09;;;;;;;4.70;1.25;;;4.90;94.70;;;;;;5048050;28;20047;-86
2022/01/18 02:30:34;;;;;;;7.88;1.30;;;4.80;94.80;;;;;;5045476;28;20022;-86
2022/01/18 02:33:00;;;;;;;11.45;2.10;;;4.80;95.10;;;;;;5065024;28;20029;-86
2022/01/18 02:35:25;;;;;;;6.78;1.58;;;4.80;95.20;;;;;;5039943;28;20038;-86
2022/01/18 02:37:54;;;;;;;15.05;2.08;;;4.80;95.50;;;;;;5051923;28;20017;-86
2022/01/18 02:40:20;;;;;;;7.82;1.50;;;4.70;95.70;;;;;;5041225;28;20029;-86
2022/01/18 02:42:56;;;;;;;12.20;1.70;;;4.70;95.70;;;;;;5030098;28;20079;-85
2022/01/18 02:45:22;;;;;;;11.95;1.40;;;4.70;95.80;;;;;;5039461;28;20087;-86
2022/01/18 02:47:48;;;;;;;12.13;2.15;;;4.70;95.90;;;;;;5027939;28;20108;-86
2022/01/18 02:50:14;;;;;;;5.75;1.52;;;4.70;95.90;;;;;;5038626;28;20037;-86
2022/01/18 02:52:39;;;;;;;11.25;1.70;;;4.70;96.00;;;;;;5047244;28;20386;-85
2022/01/18 02:55:05;;;;;;;13.88;2.10;;;4.80;96.20;;;;;;5037650;28;20125;-86
2022/01/18 02:57:37;;;;;;;15.98;1.83;;;4.70;96.20;;;;;;5048043;28;20025;-85
2022/01/18 03:00:14;;;;;;;10.15;1.30;;;4.70;96.30;;;;;;5037880;28;20073;-85
2022/01/18 03:05:24;;;;;;;12.07;1.50;;;4.70;96.70;;;;;;5048109;28;20102;-85
2022/01/18 03:07:50;;;;;;;11.60;1.98;;;4.70;96.70;;;;;;5034177;28;20120;-85
2022/01/18 03:10:16;;;;;;;14.25;2.10;;;4.70;96.80;;;;;;5043025;28;20037;-86
2022/01/18 03:12:42;;;;;;;15.63;2.03;;;4.70;96.90;;;;;;5033994;28;20025;-86
2022/01/18 03:15:09;;;;;;;13.00;1.98;;;4.70;97.00;;;;;;5043715;28;20049;-86
2022/01/18 03:17:35;;;;;;;17.52;2.83;;;4.70;97.10;;;;;;5043134;28;20021;-86
2022/01/18 03:20:02;;;;;;;13.75;2.22;;;4.70;97.20;;;;;;5048346;28;20029;-86
2022/01/18 03:22:28;;;;;;;14.23;2.33;;;4.70;97.20;;;;;;5044885;28;20439;-86
2022/01/18 03:25:12;;;;;;;16.25;2.40;;;4.70;97.20;;;;;;5045393;28;20021;-86
2022/01/18 03:30:22;;;;;;;14.85;2.00;;;4.70;97.30;;;;;;5051535;28;20056;-86
2022/01/18 03:32:47;;;;;;;16.60;2.40;;;4.70;97.40;;;;;;5043497;28;20033;-86
2022/01/18 03:35:13;;;;;;;8.98;2.40;;;4.70;97.40;;;;;;5048680;28;20400;-86
2022/01/18 03:37:39;;;;;;;17.13;2.85;;;4.70;97.40;;;;;;5039621;28;20032;-86
2022/01/18 03:40:06;;;;;;;19.63;2.55;;;4.80;97.50;;;;;;5050516;28;20037;-86
2022/01/18 03:42:43;;;;;;;11.20;2.20;;;4.80;97.50;;;;;;5046242;28;20039;-86
2022/01/18 03:45:31;;;;;;;14.75;2.20;;;4.80;97.50;;;;;;5046558;28;20485;-86
2022/01/18 03:48:01;;;;;;;12.55;2.63;;;4.70;97.40;;;;;;5048948;28;20063;-86
2022/01/18 03:50:27;;;;;;;13.93;2.47;;;4.80;97.50;;;;;;5049787;28;20075;-86
2022/01/18 03:52:53;;;;;;;14.57;2.83;;;4.80;97.50;;;;;;5035651;28;20017;-86
2022/01/18 03:55:20;;;;;;;22.95;2.65;;;4.70;97.60;;;;;;5041135;28;20041;-86
2022/01/18 03:57:46;;;;;;;23.25;3.25;;;4.80;97.60;;;;;;5036549;28;20029;-86
2022/01/18 04:00:23;;;;;;;10.38;2.97;;;4.80;97.60;;;;;;5038813;28;20029;-87
2022/01/18 04:02:49;;;;;;;20.90;3.22;;;4.80;97.60;;;;;;5044153;28;20397;-86
2022/01/18 04:05:15;;;;;;;13.95;2.47;;;4.80;97.60;;;;;;5048028;28;20033;-86
2022/01/18 04:07:42;;;;;;;11.52;2.85;;;4.80;97.60;;;;;;5049862;28;20102;-86
2022/01/18 04:10:09;;;;;;;16.85;3.10;;;4.80;97.60;;;;;;5041730;28;20554;-86
2022/01/18 04:12:35;;;;;;;19.52;3.00;;;4.80;97.60;;;;;;5041863;28;20508;-86
2022/01/18 04:15:06;;;;;;;19.55;3.20;;;4.80;97.60;;;;;;5046210;28;20026;-86
2022/01/18 04:18:28;;;;;;;15.98;3.30;;;4.80;97.60;;;;;;5058572;28;20034;-86
2022/01/18 04:26:03;;;;;;;18.95;3.30;;;4.70;97.60;;;;;;5036211;28;20079;-86
2022/01/18 04:30:56;;;;;;;24.75;3.10;;;4.70;97.60;;;;;;5049961;28;20517;-86
2022/01/18 04:33:22;;;;;;;20.92;3.13;;;4.80;97.60;;;;;;5049200;28;20063;-86
2022/01/18 04:35:47;;;;;;;22.05;3.35;;;4.70;97.70;;;;;;5045441;28;20055;-86
2022/01/18 04:38:13;;;;;;;19.92;3.50;;;4.80;97.70;;;;;;5047983;28;20369;-86
2022/01/18 04:40:43;;;;;;;15.43;3.00;;;4.80;97.70;;;;;;5050337;28;20427;-86
2022/01/18 04:43:16;;;;;;;14.93;3.47;;;4.80;97.70;;;;;;5042280;28;20029;-86
2022/01/18 04:48:36;;;;;;;14.98;2.97;;;4.80;97.70;;;;;;5042273;28;20101;-86
2022/01/18 04:51:07;;;;;;;22.65;3.60;;;4.80;97.80;;;;;;5039674;28;20095;-86
2022/01/18 04:53:34;;;;;;;19.15;3.50;;;4.80;97.80;;;;;;5038981;28;20025;-86
2022/01/18 04:56:06;;;;;;;21.65;3.30;;;4.80;97.80;;;;;;5032734;28;20173;-86
2022/01/18 04:58:32;;;;;;;16.95;3.50;;;4.80;97.80;;;;;;5040112;28;20059;-87
2022/01/18 05:01:00;;;;;;;19.17;3.90;;;4.80;97.80;;;;;;5046139;28;20021;-87
2022/01/18 05:03:28;;;;;;;24.55;3.63;;;4.80;97.80;;;;;;5040288;28;20025;-86
2022/01/18 05:05:56;;;;;;;21.88;3.83;;;4.80;97.80;;;;;;5044604;28;20033;-86
2022/01/18 05:08:23;;;;;;;18.65;3.53;;;4.80;97.80;;;;;;5042495;28;20040;-86
2022/01/18 05:10:55;;;;;;;26.48;3.88;;;4.80;97.80;;;;;;5038248;28;20036;-86
2022/01/18 05:13:41;;;;;;;24.67;4.05;;;4.80;97.80;;;;;;5049581;28;20029;-85
2022/01/18 05:21:25;;;;;;;24.25;3.38;;;4.80;97.90;;;;;;5041825;28;20040;-86
2022/01/18 05:23:51;;;;;;;21.92;3.60;;;4.80;97.90;;;;;;5040774;28;20040;-86
2022/01/18 05:26:16;;;;;;;24.85;3.42;;;4.80;97.90;;;;;;5032176;28;20045;-86
2022/01/18 05:28:42;;;;;;;26.60;4.13;;;4.80;98.00;;;;;;5032527;28;20450;-86
2022/01/18 05:31:08;;;;;;;14.85;3.75;;;4.80;98.00;;;;;;5040753;28;20029;-85
2022/01/18 05:33:33;;;;;;;24.95;4.13;;;4.80;98.00;;;;;;5049389;28;20021;-85
2022/01/18 05:35:59;;;;;;;24.55;4.65;;;4.80;98.00;;;;;;5049337;28;20021;-85
2022/01/18 05:38:24;;;;;;;24.02;4.65;;;4.90;98.00;;;;;;5047927;28;20385;-85
2022/01/18 05:40:50;;;;;;;21.55;4.43;;;4.90;98.00;;;;;;5040950;28;20415;-85
2022/01/18 05:43:17;;;;;;;23.63;4.75;;;4.90;98.00;;;;;;5042667;28;20079;-86
2022/01/18 05:45:42;;;;;;;23.67;5.63;;;4.90;98.00;;;;;;5047306;28;20048;-87
2022/01/18 05:48:08;;;;;;;17.35;5.20;;;4.90;98.10;;;;;;5037522;28;20029;-87
2022/01/18 05:50:35;;;;;;;38.38;6.50;;;5.00;98.10;;;;;;5045089;28;20049;-86
2022/01/18 05:53:00;;;;;;;34.20;6.95;;;5.00;98.10;;;;;;5038375;28;20025;-86
2022/01/18 05:55:27;;;;;;;30.42;7.30;;;5.00;98.10;;;;;;5038933;28;20033;-86
2022/01/18 05:57:53;;;;;;;30.27;6.55;;;5.00;98.10;;;;;;5048742;28;20017;-85
2022/01/18 06:00:22;;;;;;;31.90;7.13;;;5.00;98.10;;;;;;5042498;28;20043;-85
2022/01/18 06:02:59;;;;;;;39.25;8.88;;;5.00;98.20;;;;;;5045322;28;20068;-85
2022/01/18 06:08:10;;;;;;;43.03;9.18;;;5.00;98.20;;;;;;5043847;28;20117;-85
2022/01/18 06:10:36;;;;;;;35.78;9.23;;;5.10;98.20;;;;;;5044935;28;20120;-85
2022/01/18 06:13:03;;;;;;;37.95;9.70;;;5.10;98.20;;;;;;5036076;28;20061;-85
2022/01/18 06:15:32;;;;;;;45.05;9.52;;;5.10;98.20;;;;;;5044311;28;20100;-86
2022/01/18 06:18:05;;;;;;;32.83;9.80;;;5.10;98.30;;;;;;5034411;28;20548;-87
2022/01/18 06:20:32;;;;;;;37.80;10.00;;;5.10;98.30;;;;;;5050441;28;20036;-86
2022/01/18 06:23:06;;;;;;;38.60;10.10;;;5.10;98.30;;;;;;5035878;28;20571;-86
2022/01/18 06:25:31;;;;;;;40.30;10.23;;;5.10;98.30;;;;;;5043989;28;20152;-86
2022/01/18 06:27:59;;;;;;;47.38;11.25;;;5.10;98.30;;;;;;5034992;28;20029;-86
2022/01/18 06:30:25;;;;;;;36.25;10.00;;;5.20;98.30;;;;;;5033314;28;20396;-86
2022/01/18 06:32:51;;;;;;;41.25;10.88;;;5.10;98.30;;;;;;5045118;28;20024;-86
2022/01/18 06:35:17;;;;;;;32.22;9.68;;;5.20;98.30;;;;;;5046309;28;20068;-85
2022/01/18 06:37:43;;;;;;;34.63;9.98;;;5.20;98.30;;;;;;5038596;28;20017;-85
2022/01/18 06:40:10;;;;;;;47.85;10.77;;;5.20;98.40;;;;;;5043786;28;20079;-86
2022/01/18 06:42:36;;;;;;;43.60;10.48;;;5.20;98.40;;;;;;5036368;28;20024;-85
2022/01/18 06:45:05;;;;;;;38.63;9.73;;;5.20;98.40;;;;;;5034625;28;20540;-85
2022/01/18 06:47:31;;;;;;;42.85;10.90;;;5.30;98.40;;;;;;5044412;28;20045;-85
2022/01/18 06:49:56;;;;;;;35.45;9.85;;;5.20;98.40;;;;;;5039862;28;20041;-86
2022/01/18 06:52:22;;;;;;;46.45;10.57;;;5.20;98.40;;;;;;5048164;28;20029;-86
2022/01/18 06:54:47;;;;;;;37.88;10.52;;;5.20;98.40;;;;;;5045442;28;20276;-86
2022/01/18 06:57:13;;;;;;;41.08;9.48;;;5.20;98.40;;;;;;5043110;28;20489;-86
2022/01/18 06:59:39;;;;;;;45.13;9.90;;;5.30;98.50;;;;;;5032463;28;20049;-85
2022/01/18 07:02:04;;;;;;;44.22;10.60;;;5.20;98.50;;;;;;5034648;28;20026;-85
2022/01/18 07:04:30;;;;;;;42.15;10.68;;;5.30;98.50;;;;;;5042283;28;20072;-85
2022/01/18 07:06:55;;;;;;;44.95;10.55;;;5.30;98.50;;;;;;5042004;28;20037;-86
2022/01/18 07:09:23;;;;;;;36.97;9.93;;;5.30;98.40;;;;;;5050594;28;20128;-85
2022/01/18 07:11:52;;;;;;;46.00;10.02;;;5.30;98.50;;;;;;5053083;28;20023;-85
2022/01/18 07:14:18;;;;;;;53.85;10.02;;;5.30;98.50;;;;;;5042898;28;20480;-85
2022/01/18 07:16:43;;;;;;;49.05;10.93;;;5.30;98.50;;;;;;5048464;28;20040;-86
2022/01/18 07:19:09;;;;;;;36.63;9.55;;;5.30;98.50;;;;;;5046795;28;20029;-86
2022/01/18 07:21:34;;;;;;;33.42;8.27;;;5.40;98.60;;;;;;5038264;28;20057;-86
2022/01/18 07:24:05;;;;;;;41.50;9.38;;;5.40;98.60;;;;;;5036587;28;20148;-85
2022/01/18 07:26:32;;;;;;;47.88;9.48;;;5.40;98.60;;;;;;5043979;28;20029;-86
2022/01/18 07:28:57;;;;;;;36.00;9.23;;;5.50;98.60;;;;;;5049462;28;20052;-86
2022/01/18 07:31:23;;;;;;;43.92;10.52;;;5.40;98.60;;;;;;5032272;28;20022;-86
2022/01/18 07:33:48;;;;;;;44.38;10.07;;;5.40;98.60;;;;;;5047026;28;20027;-86
2022/01/18 07:36:14;;;;;;;51.60;9.70;;;5.40;98.50;;;;;;5052095;28;20377;-86
2022/01/18 07:38:42;;;;;;;42.97;9.32;;;5.40;98.50;;;;;;5043218;28;20399;-86
2022/01/18 07:41:07;;;;;;;47.25;9.52;;;5.40;98.60;;;;;;5050330;28;20029;-86
2022/01/18 07:43:34;;;;;;;41.22;8.95;;;5.40;98.60;;;;;;5051773;28;20131;-86
2022/01/18 07:46:00;;;;;;;48.47;9.43;;;5.40;98.60;;;;;;5047036;28;20032;-86
2022/01/18 07:48:25;;;;;;;46.20;8.82;;;5.40;98.60;;;;;;5038800;28;20029;-86
2022/01/18 07:50:54;;;;;;;43.97;9.18;;;5.40;98.60;;;;;;5037173;28;20072;-86
2022/01/18 07:53:19;;;;;;;41.17;8.02;;;5.40;98.60;;;;;;5037911;28;20025;-86
2022/01/18 07:55:47;;;;;;;55.33;9.10;;;5.50;98.60;;;;;;5049198;28;20135;-86
2022/01/18 07:58:12;;;;;;;41.20;7.55;;;5.50;98.60;;;;;;5050323;28;20021;-86
2022/01/18 08:00:40;;;;;;;34.08;7.63;;;5.50;98.60;;;;;;5047193;28;20040;-86
2022/01/18 08:03:06;;;;;;;41.70;8.18;;;5.50;98.60;;;;;;5046690;28;20497;-86
2022/01/18 08:05:31;;;;;;;40.72;7.55;;;5.50;98.60;;;;;;5042475;28;20037;-86
2022/01/18 08:07:57;;;;;;;44.45;6.95;;;5.60;98.60;;;;;;5052186;28;20052;-87
2022/01/18 08:10:29;;;;;;;43.63;7.40;;;5.60;98.60;;;;;;5041711;28;20037;-86
2022/01/18 08:13:01;;;;;;;40.05;7.55;;;5.60;98.70;;;;;;5044047;28;20045;-86
2022/01/18 08:15:29;;;;;;;49.83;7.45;;;5.70;98.70;;;;;;5044472;28;20032;-86
2022/01/18 08:17:55;;;;;;;46.72;7.07;;;5.70;98.60;;;;;;5048037;28;20021;-86
2022/01/18 08:20:23;;;;;;;53.78;7.18;;;5.60;98.60;;;;;;5050237;28;20032;-86
2022/01/18 08:22:48;;;;;;;44.08;7.20;;;5.70;98.60;;;;;;5041190;28;20035;-86
2022/01/18 08:25:15;;;;;;;29.67;7.55;;;5.70;98.60;;;;;;5049454;28;20029;-86
2022/01/18 08:27:42;;;;;;;35.30;7.05;;;5.70;98.60;;;;;;5047541;28;20033;-86
2022/01/18 08:30:10;;;;;;;40.83;7.25;;;5.70;98.60;;;;;;5036097;28;20051;-85
2022/01/18 08:32:38;;;;;;;38.78;7.13;;;5.70;98.60;;;;;;5050016;28;20049;-86
2022/01/18 08:35:05;;;;;;;30.83;6.60;;;5.70;98.60;;;;;;5043471;28;20032;-86
2022/01/18 08:37:30;;;;;;;37.25;7.25;;;5.80;98.60;;;;;;5051526;28;20065;-86
2022/01/18 08:39:56;;;;;;;43.25;7.07;;;5.80;98.60;;;;;;5049463;28;20041;-86
2022/01/18 08:42:24;;;;;;;46.17;7.15;;;5.80;98.60;;;;;;5048676;28;20064;-86
2022/01/18 08:44:50;;;;;;;46.45;7.07;;;5.90;98.60;;;;;;5048221;28;20094;-86
2022/01/18 08:47:17;;;;;;;41.97;7.50;;;5.80;98.60;;;;;;5041817;28;20033;-86
2022/01/18 08:49:44;;;;;;;60.10;7.75;;;5.80;98.50;;;;;;5039869;28;20086;-85
2022/01/18 08:52:10;;;;;;;47.28;7.03;;;5.90;98.50;;;;;;5039640;28;20021;-85
2022/01/18 08:54:36;;;;;;;37.17;7.38;;;5.80;98.50;;;;;;5042779;28;20111;-85
2022/01/18 08:57:02;;;;;;;42.72;7.78;;;5.90;98.50;;;;;;5049899;28;20135;-85
2022/01/18 08:59:29;;;;;;;53.20;7.70;;;5.90;98.50;;;;;;5044612;28;20564;-85
2022/01/18 09:01:54;;;;;;;48.78;8.75;;;5.90;98.50;;;;;;5040153;28;20069;-85
2022/01/18 09:04:20;;;;;;;46.58;7.53;;;5.90;98.50;;;;;;5045326;28;20061;-85
2022/01/18 09:06:50;;;;;;;43.10;8.70;;;6.00;98.50;;;;;;5040776;28;20033;-86
2022/01/18 09:09:17;;;;;;;41.05;8.40;;;6.00;98.50;;;;;;5048413;28;20040;-86
2022/01/18 09:11:45;;;;;;;37.72;7.85;;;5.90;98.50;;;;;;5046984;28;20400;-86
2022/01/18 09:14:11;;;;;;;44.30;8.63;;;6.00;98.40;;;;;;5045914;28;20017;-86
2022/01/18 09:16:36;;;;;;;28.40;8.48;;;6.00;98.40;;;;;;5045265;28;20029;-86
2022/01/18 09:19:02;;;;;;;52.53;7.90;;;6.00;98.40;;;;;;5041184;28;20032;-86
2022/01/18 09:21:28;;;;;;;40.10;7.75;;;6.00;98.30;;;;;;5038724;28;20503;-86
2022/01/18 09:23:53;;;;;;;34.92;7.25;;;6.00;98.30;;;;;;5040677;28;20120;-86
2022/01/18 09:26:19;;;;;;;30.80;7.10;;;6.10;98.20;;;;;;5040476;28;20032;-87
2022/01/18 09:28:45;;;;;;;30.67;7.07;;;6.00;98.20;;;;;;5046854;28;20148;-87
2022/01/18 09:31:10;;;;;;;30.80;6.45;;;6.00;98.20;;;;;;5032921;28;20100;-87
2022/01/18 09:33:36;;;;;;;30.17;6.55;;;6.10;98.10;;;;;;5048519;28;20017;-86
2022/01/18 09:36:04;;;;;;;44.70;6.97;;;6.10;98.10;;;;;;5049480;28;20029;-86
2022/01/18 09:38:30;;;;;;;27.42;6.97;;;6.10;98.00;;;;;;5047116;28;20444;-86
2022/01/18 09:40:58;;;;;;;28.13;6.03;;;6.10;97.90;;;;;;5033281;28;20021;-87
2022/01/18 09:43:24;;;;;;;19.88;5.55;;;6.10;97.80;;;;;;5045812;28;20450;-87
2022/01/18 09:45:50;;;;;;;32.88;6.20;;;6.20;97.80;;;;;;5035135;28;20029;-87
2022/01/18 09:48:18;;;;;;;30.85;5.38;;;6.20;97.70;;;;;;5038374;28;20472;-87
2022/01/18 09:50:45;;;;;;;27.00;5.90;;;6.20;97.50;;;;;;5043011;28;20512;-87
2022/01/18 09:53:12;;;;;;;32.00;6.38;;;6.20;97.40;;;;;;5035392;28;20025;-87
2022/01/18 09:55:39;;;;;;;25.45;5.25;;;6.30;97.30;;;;;;5036980;28;20037;-87
2022/01/18 09:58:07;;;;;;;25.00;5.60;;;6.30;97.10;;;;;;5049150;28;20064;-87
2022/01/18 10:00:34;;;;;;;28.00;6.88;;;6.30;97.00;;;;;;5032507;28;20489;-87
2022/01/18 10:03:00;;;;;;;26.55;6.13;;;6.30;96.90;;;;;;5032910;28;20421;-86
2022/01/18 10:05:28;;;;;;;23.38;5.65;;;6.40;96.90;;;;;;5042346;28;20035;-88
2022/01/18 10:07:58;;;;;;;26.58;4.90;;;6.40;96.70;;;;;;5035824;28;20503;-87
2022/01/18 10:10:53;;;;;;;20.30;4.57;;;6.50;96.40;;;;;;5046251;28;20060;-87
2022/01/18 10:13:20;;;;;;;19.48;4.20;;;6.50;96.20;;;;;;5064947;28;20063;-87
2022/01/18 10:16:11;;;;;;;28.33;4.25;;;6.50;96.00;;;;;;5043522;28;20033;-87
2022/01/18 10:18:42;;;;;;;;;;;6.50;95.60;;;;;;5038827;28;20036;-87
2022/01/18 10:21:09;;;;;;;25.38;4.75;;;6.50;95.60;;;;;;5044662;28;20285;-87
2022/01/18 10:23:35;;;;;;;27.02;4.93;;;6.50;95.40;;;;;;5044740;28;20469;-86
2022/01/18 10:26:22;;;;;;;28.33;5.90;;;6.60;95.40;;;;;;5039163;28;20029;-87
2022/01/18 10:28:59;;;;;;;28.50;5.75;;;6.60;95.10;;;;;;5039856;28;20040;-87
2022/01/18 10:31:57;;;;;;;27.48;5.03;;;6.70;95.20;;;;;;5043891;28;20034;-87
2022/01/18 10:37:04;;;;;;;21.98;4.82;;;6.70;94.90;;;;;;5043399;28;20021;-86
2022/01/18 10:39:36;;;;;;;21.25;4.82;;;6.70;94.90;;;;;;5030270;28;20128;-87
2022/01/18 10:42:16;;;;;;;21.77;5.15;;;6.70;94.80;;;;;;5032569;28;20025;-87
2022/01/18 10:44:45;;;;;;;18.83;4.45;;;6.70;94.70;;;;;;5035996;28;20120;-87
2022/01/18 10:47:11;;;;;;;17.95;4.95;;;6.70;94.50;;;;;;5043796;28;20037;-87
2022/01/18 10:49:40;;;;;;;17.90;4.57;;;6.70;94.50;;;;;;5041474;28;20037;-86
2022/01/18 10:52:10;;;;;;;22.55;4.57;;;6.70;94.40;;;;;;5061825;28;20052;-87
2022/01/18 10:54:45;;;;;;;22.17;4.75;;;6.70;94.30;;;;;;5043498;28;20116;-87
2022/01/18 10:57:13;;;;;;;19.77;4.20;;;6.80;94.30;;;;;;5047684;28;20029;-87
2022/01/18 10:59:41;;;;;;;22.73;4.43;;;6.80;94.40;;;;;;5039132;28;20067;-86
2022/01/18 11:02:13;;;;;;;18.15;4.68;;;6.80;94.30;;;;;;5038067;28;20029;-86
2022/01/18 11:04:42;;;;;;;23.90;4.85;;;6.80;94.20;;;;;;5048293;28;20028;-86
2022/01/18 11:07:08;;;;;;;20.35;4.60;;;6.90;94.20;;;;;;5047623;28;20119;-86
2022/01/18 11:09:34;;;;;;;20.80;4.53;;;6.90;94.10;;;;;;5047128;28;20107;-86
2022/01/18 11:12:00;;;;;;;24.10;4.68;;;6.90;94.20;;;;;;5028127;28;20044;-86
2022/01/18 11:14:27;;;;;;;15.57;4.10;;;7.00;94.00;;;;;;5032368;28;20075;-86
2022/01/18 11:16:56;;;;;;;17.67;4.38;;;7.00;93.90;;;;;;5042329;28;20013;-86
2022/01/18 11:21:50;;;;;;;15.52;3.25;;;7.00;93.40;;;;;;5041529;28;20048;-86
2022/01/18 11:24:16;;;;;;;18.40;3.80;;;7.00;93.10;;;;;;5034748;28;20421;-86
2022/01/18 11:26:44;;;;;;;20.80;3.70;;;7.10;93.10;;;;;;5042100;28;20813;-86
2022/01/18 11:29:11;;;;;;;17.63;3.42;;;7.10;92.90;;;;;;5034519;28;20033;-86
2022/01/18 11:31:37;;;;;;;16.30;3.30;;;7.10;92.80;;;;;;5032069;28;20508;-86
2022/01/18 11:34:05;;;;;;;14.38;3.05;;;7.10;93.00;;;;;;5033773;28;20014;-86
2022/01/18 11:36:37;;;;;;;18.15;3.42;;;7.10;92.80;;;;;;5045135;28;20059;-86
2022/01/18 11:39:06;;;;;;;16.60;3.63;;;7.20;92.80;;;;;;5050754;28;20040;-86
2022/01/18 11:41:35;;;;;;;16.95;3.38;;;7.20;92.80;;;;;;5041059;28;20029;-86
2022/01/18 11:44:15;;;;;;;15.35;2.75;;;7.10;92.60;;;;;;5036686;28;20053;-86
2022/01/18 11:46:47;;;;;;;18.50;3.63;;;7.20;92.60;;;;;;5048629;28;20078;-86
2022/01/18 11:49:24;;;;;;;14.05;3.05;;;7.20;92.10;;;;;;5048714;28;20059;-86
2022/01/18 11:52:24;;;;;;;15.00;3.40;;;7.20;91.90;;;;;;5053227;28;20448;-86
2022/01/18 11:57:24;;;;;;;9.35;2.35;;;7.20;90.60;;;;;;5052608;28;20083;-86
2022/01/18 11:59:58;;;;;;;16.63;2.40;;;7.20;90.30;;;;;;5043058;28;20127;-86
2022/01/18 12:02:43;;;;;;;14.98;2.50;;;7.20;90.30;;;;;;5033912;28;20061;-86
2022/01/18 12:05:19;;;;;;;13.70;2.53;;;7.30;91.00;;;;;;5045364;28;20170;-86
2022/01/18 12:07:47;;;;;;;8.77;1.98;;;7.20;90.30;;;;;;5039844;28;20436;-86
2022/01/18 12:10:32;;;;;;;10.57;2.45;;;7.30;90.50;;;;;;5041752;28;20189;-86
2022/01/18 12:13:10;;;;;;;8.93;2.03;;;7.20;90.40;;;;;;5049897;28;20068;-86
2022/01/18 12:15:39;;;;;;;11.82;1.80;;;7.20;90.00;;;;;;5031433;28;20382;-86
2022/01/18 12:18:17;;;;;;;8.23;1.92;;;7.10;89.40;;;;;;5044100;28;20515;-86
2022/01/18 12:20:46;;;;;;;9.50;1.40;;;7.10;89.60;;;;;;5033547;28;20040;-86
2022/01/18 12:23:30;;;;;;;7.57;2.00;;;7.10;89.10;;;;;;5061124;28;20060;-86
2022/01/18 12:26:27;;;;;;;6.60;1.45;;;7.00;89.00;;;;;;5049423;28;20408;-86
2022/01/18 12:32:04;;;;;;;11.13;1.90;;;7.00;89.70;;;;;;5044820;28;20025;-86
2022/01/18 12:34:38;;;;;;;5.72;1.45;;;7.00;89.30;;;;;;5048691;28;20104;-86
2022/01/18 12:37:11;;;;;;;8.60;1.73;;;6.90;89.40;;;;;;5046904;28;20410;-86
2022/01/18 12:39:53;;;;;;;6.50;1.45;;;7.00;89.50;;;;;;5045608;28;20397;-86
2022/01/18 12:45:29;;;;;;;5.95;1.35;;;6.90;89.00;;;;;;5025557;28;20120;-86
2022/01/18 12:48:01;;;;;;;7.50;1.58;;;6.90;89.40;;;;;;5039872;28;20030;-86
2022/01/18 12:50:38;;;;;;;10.80;2.55;;;6.80;89.40;;;;;;5047716;28;20568;-86
2022/01/18 12:53:05;;;;;;;9.68;2.25;;;6.90;89.80;;;;;;5049541;28;20025;-86
2022/01/18 12:55:42;;;;;;;9.52;1.73;;;6.80;90.10;;;;;;5049912;28;20029;-86
2022/01/18 12:58:16;;;;;;;7.68;1.83;;;6.80;90.00;;;;;;5049648;28;20032;-86
2022/01/18 13:00:47;;;;;;;7.80;2.17;;;6.80;90.40;;;;;;5036526;28;20025;-86
2022/01/18 13:03:44;;;;;;;8.55;2.30;;;6.80;90.50;;;;;;5047438;28;20043;-86
2022/01/18 13:06:18;;;;;;;6.68;2.03;;;6.80;90.50;;;;;;5036409;28;20033;-86
2022/01/18 13:08:50;;;;;;;10.27;2.30;;;6.80;90.90;;;;;;5037455;28;20477;-86
2022/01/18 13:11:23;;;;;;;10.15;2.22;;;6.80;91.10;;;;;;5053588;28;20024;-86
2022/01/18 13:14:00;;;;;;;9.75;1.88;;;6.80;91.10;;;;;;5041436;28;20025;-86
2022/01/18 13:25:03;;;;;;;8.93;2.65;;;6.70;90.00;;;;;;5032020;28;20432;-86
2022/01/18 13:27:35;;;;;;;7.88;2.10;;;6.70;89.80;;;;;;5043718;28;20036;-86
2022/01/18 13:30:14;;;;;;;7.65;2.08;;;6.80;90.00;;;;;;5044382;28;20087;-87
2022/01/18 13:32:39;;;;;;;8.48;1.92;;;6.80;90.20;;;;;;5042295;28;20017;-86
2022/01/18 13:35:05;;;;;;;7.90;2.33;;;6.80;90.00;;;;;;5049846;28;20115;-86
2022/01/18 13:37:33;;;;;;;7.72;1.60;;;6.80;90.00;;;;;;5047375;28;20036;-86
2022/01/18 13:40:03;;;;;;;6.85;1.45;;;6.80;90.00;;;;;;5033703;28;20033;-87
2022/01/18 13:42:43;;;;;;;4.20;1.08;;;6.80;89.70;;;;;;5036594;28;20493;-87
2022/01/18 13:45:19;;;;;;;6.35;1.42;;;6.70;89.40;;;;;;5038982;28;20025;-86
2022/01/18 13:47:47;;;;;;;4.88;1.25;;;6.70;89.70;;;;;;5035017;28;20033;-86
2022/01/18 13:50:46;;;;;;;5.55;1.58;;;6.60;90.00;;;;;;5045672;28;20037;-86
2022/01/18 13:53:18;;;;;;;8.30;1.55;;;6.60;89.90;;;;;;5046169;28;20025;-86
2022/01/18 13:55:53;;;;;;;9.45;1.48;;;6.60;90.00;;;;;;5037903;28;20497;-86
2022/01/18 13:58:34;;;;;;;6.43;1.48;;;6.60;89.60;;;;;;5038349;28;20025;-85
2022/01/18 14:01:28;;;;;;;10.13;1.20;;;6.60;89.60;;;;;;5032404;28;20473;-86
2022/01/18 14:04:03;;;;;;;7.65;1.50;;;6.60;89.70;;;;;;5037594;28;20029;-86
2022/01/18 14:06:40;;;;;;;7.55;1.83;;;6.60;89.70;;;;;;5038824;28;20025;-86
2022/01/18 14:09:07;;;;;;;6.75;1.40;;;6.60;89.90;;;;;;5039889;28;20044;-86
2022/01/18 14:11:35;;;;;;;6.82;1.30;;;6.60;89.90;;;;;;5040005;28;20025;-86
2022/01/18 14:14:16;;;;;;;6.05;2.00;;;6.60;89.90;;;;;;5029840;28;20029;-86
2022/01/18 14:17:23;;;;;;;3.42;1.58;;;6.60;90.20;;;;;;5034528;28;20029;-86
2022/01/18 14:19:51;;;;;;;6.90;1.55;;;6.60;90.30;;;;;;5027857;28;20061;-86
2022/01/18 14:22:28;;;;;;;10.57;2.20;;;6.50;90.50;;;;;;5045820;28;20348;-86
2022/01/18 14:24:58;;;;;;;8.43;1.55;;;6.50;90.70;;;;;;5031649;28;20060;-86
2022/01/18 14:27:38;;;;;;;6.75;1.50;;;6.50;90.70;;;;;;5044882;28;20057;-86